createdAt,value
2022-09-06T00:00:55.881Z,17.71
2022-09-06T00:01:55.900Z,17.72
2022-09-06T00:02:55.894Z,17.71
2022-09-06T00:03:55.909Z,17.76
2022-09-06T00:04:55.839Z,17.78
2022-09-06T00:05:55.830Z,17.82
2022-09-06T00:06:55.822Z,17.85
2022-09-06T00:07:55.821Z,17.87
2022-09-06T00:08:55.794Z,17.90
2022-09-06T00:09:55.780Z,17.87
2022-09-06T00:11:00.398Z,17.87
2022-09-06T00:11:56.761Z,17.83
2022-09-06T00:12:55.743Z,17.79
2022-09-06T00:13:55.753Z,17.76
2022-09-06T00:14:55.719Z,17.71
2022-09-06T00:15:55.820Z,17.67
2022-09-06T00:16:55.693Z,17.65
2022-09-06T00:17:55.693Z,17.60
2022-09-06T00:18:55.671Z,17.59
2022-09-06T00:19:55.682Z,17.57
2022-09-06T00:20:55.643Z,17.56
2022-09-06T00:21:55.655Z,17.54
2022-09-06T00:22:55.622Z,17.51
2022-09-06T00:23:55.621Z,17.49
2022-09-06T00:24:55.623Z,17.49
2022-09-06T00:25:55.593Z,17.51
2022-09-06T00:26:55.582Z,17.52
2022-09-06T00:27:55.573Z,17.54
2022-09-06T00:28:55.555Z,17.56
2022-09-06T00:29:55.544Z,17.56
2022-09-06T00:30:55.608Z,17.54
2022-09-06T00:31:55.529Z,17.56
2022-09-06T00:32:55.510Z,17.59
2022-09-06T00:33:55.494Z,17.59
2022-09-06T00:34:55.484Z,17.57
2022-09-06T00:35:55.632Z,17.57
2022-09-06T00:36:55.468Z,17.57
2022-09-06T00:37:55.456Z,17.57
2022-09-06T00:38:55.444Z,17.56
2022-09-06T00:39:55.478Z,17.54
2022-09-06T00:40:55.422Z,17.56
2022-09-06T00:41:55.432Z,17.54
2022-09-06T00:42:55.394Z,17.51
2022-09-06T00:43:55.395Z,17.51
2022-09-06T00:44:55.366Z,17.49
2022-09-06T00:45:55.399Z,17.48
2022-09-06T00:46:55.346Z,17.48
2022-09-06T00:47:55.358Z,17.48
2022-09-06T00:48:55.324Z,17.49
2022-09-06T00:49:55.315Z,17.51
2022-09-06T00:50:55.303Z,17.51
2022-09-06T00:51:55.286Z,17.51
2022-09-06T00:52:55.275Z,17.52
2022-09-06T00:53:55.316Z,17.52
2022-09-06T00:54:55.254Z,17.51
2022-09-06T00:55:55.245Z,17.52
2022-09-06T00:56:55.228Z,17.52
2022-09-06T00:57:55.227Z,17.49
2022-09-06T00:58:55.215Z,17.49
2022-09-06T00:59:55.228Z,17.46
2022-09-06T01:00:55.185Z,17.45
2022-09-06T01:01:55.333Z,17.44
2022-09-06T01:02:55.233Z,17.42
2022-09-06T01:03:55.155Z,17.42
2022-09-06T01:04:55.140Z,17.41
2022-09-06T01:05:55.148Z,17.39
2022-09-06T01:06:55.110Z,17.38
2022-09-06T01:07:55.107Z,17.36
2022-09-06T01:08:55.099Z,17.33
2022-09-06T01:09:55.086Z,17.29
2022-09-06T01:10:55.068Z,17.27
2022-09-06T01:11:55.085Z,17.24
2022-09-06T01:12:55.048Z,17.23
2022-09-06T01:13:55.039Z,17.20
2022-09-06T01:14:55.026Z,17.20
2022-09-06T01:15:55.058Z,17.16
2022-09-06T01:16:54.997Z,17.15
2022-09-06T01:17:55.007Z,17.15
2022-09-06T01:18:54.970Z,17.15
2022-09-06T01:19:54.982Z,17.16
2022-09-06T01:20:54.957Z,17.16
2022-09-06T01:21:54.960Z,17.16
2022-09-06T01:22:59.376Z,17.16
2022-09-06T01:23:54.928Z,17.16
2022-09-06T01:24:54.918Z,17.22
2022-09-06T01:25:54.900Z,17.20
2022-09-06T01:26:54.889Z,17.22
2022-09-06T01:27:54.877Z,17.23
2022-09-06T01:28:54.960Z,17.23
2022-09-06T01:29:54.853Z,17.24
2022-09-06T01:30:54.927Z,17.24
2022-09-06T01:31:54.828Z,17.29
2022-09-06T01:32:54.809Z,17.31
2022-09-06T01:33:54.809Z,17.36
2022-09-06T01:34:54.947Z,17.41
2022-09-06T01:35:54.779Z,17.45
2022-09-06T01:37:09.312Z,17.49
2022-09-06T01:37:55.760Z,17.52
2022-09-06T01:38:54.748Z,17.56
2022-09-06T01:39:54.786Z,17.56
2022-09-06T01:40:54.728Z,17.60
2022-09-06T01:41:54.712Z,17.64
2022-09-06T01:42:54.706Z,17.65
2022-09-06T01:43:54.688Z,17.68
2022-09-06T01:44:54.671Z,17.71
2022-09-06T01:45:54.707Z,17.71
2022-09-06T01:46:54.651Z,17.71
2022-09-06T01:47:54.640Z,17.72
2022-09-06T01:48:54.622Z,17.74
2022-09-06T01:49:54.622Z,17.74
2022-09-06T01:50:54.612Z,17.72
2022-09-06T01:51:54.621Z,17.74
2022-09-06T01:52:54.585Z,17.74
2022-09-06T01:53:54.580Z,17.72
2022-09-06T01:54:54.560Z,17.71
2022-09-06T01:55:54.550Z,17.70
2022-09-06T01:56:54.539Z,17.67
2022-09-06T01:57:54.542Z,17.64
2022-09-06T01:58:54.512Z,17.63
2022-09-06T01:59:54.501Z,17.63
2022-09-06T02:00:54.490Z,17.67
2022-09-06T02:01:54.542Z,17.68
2022-09-06T02:02:54.540Z,17.67
2022-09-06T02:03:54.461Z,17.65
2022-09-06T02:04:54.445Z,17.67
2022-09-06T02:05:54.434Z,17.65
2022-09-06T02:06:54.421Z,17.67
2022-09-06T02:07:54.413Z,17.67
2022-09-06T02:08:54.423Z,17.65
2022-09-06T02:09:54.385Z,17.64
2022-09-06T02:10:54.364Z,17.60
2022-09-06T02:11:54.371Z,17.57
2022-09-06T02:12:54.345Z,17.57
2022-09-06T02:13:54.371Z,17.56
2022-09-06T02:14:54.323Z,17.57
2022-09-06T02:15:54.313Z,17.59
2022-09-06T02:16:54.358Z,17.59
2022-09-06T02:17:54.294Z,17.59
2022-09-06T02:18:54.284Z,17.59
2022-09-06T02:19:54.294Z,17.63
2022-09-06T02:20:54.256Z,17.63
2022-09-06T02:21:54.252Z,17.63
2022-09-06T02:22:54.233Z,17.64
2022-09-06T02:23:54.224Z,17.64
2022-09-06T02:24:54.205Z,17.67
2022-09-06T02:25:54.225Z,17.70
2022-09-06T02:26:54.185Z,17.74
2022-09-06T02:27:54.175Z,17.85
2022-09-06T02:28:54.156Z,18.00
2022-09-06T02:29:54.155Z,18.19
2022-09-06T02:30:54.190Z,18.38
2022-09-06T02:31:54.145Z,18.60
2022-09-06T02:32:54.115Z,18.81
2022-09-06T02:33:54.109Z,19.02
2022-09-06T02:34:54.105Z,19.18
2022-09-06T02:35:54.085Z,19.29
2022-09-06T02:36:54.117Z,19.49
2022-09-06T02:37:54.064Z,19.70
2022-09-06T02:38:54.047Z,19.88
2022-09-06T02:39:54.095Z,20.06
2022-09-06T02:40:54.039Z,20.18
2022-09-06T02:41:54.017Z,20.26
2022-09-06T02:42:54.021Z,20.36
2022-09-06T02:43:53.997Z,20.44
2022-09-06T02:44:53.993Z,20.59
2022-09-06T02:45:54.026Z,20.66
2022-09-06T02:46:56.954Z,20.66
2022-09-06T02:47:53.969Z,20.70
2022-09-06T02:48:53.939Z,20.77
2022-09-06T02:49:53.927Z,20.82
2022-09-06T02:50:53.917Z,20.84
2022-09-06T02:51:53.897Z,20.85
2022-09-06T02:52:53.897Z,20.92
2022-09-06T02:53:53.907Z,20.90
2022-09-06T02:54:53.868Z,20.90
2022-09-06T02:55:53.874Z,20.88
2022-09-06T02:56:53.848Z,20.85
2022-09-06T02:57:53.837Z,20.85
2022-09-06T02:58:53.850Z,20.84
2022-09-06T02:59:53.810Z,20.82
2022-09-06T03:00:53.871Z,20.80
2022-09-06T03:01:53.789Z,20.74
2022-09-06T03:02:53.779Z,20.69
2022-09-06T03:03:53.762Z,20.67
2022-09-06T03:04:53.785Z,20.66
2022-09-06T03:05:53.742Z,20.60
2022-09-06T03:06:53.743Z,20.56
2022-09-06T03:07:53.720Z,20.56
2022-09-06T03:08:53.710Z,20.55
2022-09-06T03:09:53.691Z,20.55
2022-09-06T03:10:53.702Z,20.55
2022-09-06T03:11:53.670Z,20.55
2022-09-06T03:12:53.660Z,20.55
2022-09-06T03:13:53.650Z,20.55
2022-09-06T03:14:55.105Z,20.55
2022-09-06T03:15:53.623Z,20.52
2022-09-06T03:16:53.669Z,20.52
2022-09-06T03:17:53.593Z,20.52
2022-09-06T03:18:53.608Z,20.51
2022-09-06T03:19:53.575Z,20.48
2022-09-06T03:20:53.564Z,20.43
2022-09-06T03:21:53.573Z,20.39
2022-09-06T03:22:53.541Z,20.34
2022-09-06T03:23:53.526Z,20.29
2022-09-06T03:24:53.538Z,20.29
2022-09-06T03:25:53.509Z,20.34
2022-09-06T03:26:53.491Z,20.37
2022-09-06T03:27:53.504Z,20.39
2022-09-06T03:28:53.471Z,20.41
2022-09-06T03:29:53.455Z,20.41
2022-09-06T03:30:53.479Z,20.41
2022-09-06T03:31:53.423Z,20.40
2022-09-06T03:32:53.424Z,20.34
2022-09-06T03:33:53.434Z,20.29
2022-09-06T03:34:53.393Z,20.25
2022-09-06T03:35:53.384Z,20.21
2022-09-06T03:36:53.373Z,20.21
2022-09-06T03:37:53.357Z,20.16
2022-09-06T03:38:53.356Z,20.14
2022-09-06T03:39:53.496Z,20.13
2022-09-06T03:40:53.325Z,20.11
2022-09-06T03:41:53.315Z,20.10
2022-09-06T03:42:53.304Z,20.11
2022-09-06T03:43:53.285Z,20.11
2022-09-06T03:44:53.284Z,20.13
2022-09-06T03:45:53.333Z,20.16
2022-09-06T03:46:53.255Z,20.19
2022-09-06T03:47:53.243Z,20.21
2022-09-06T03:48:53.233Z,20.21
2022-09-06T03:49:53.217Z,20.21
2022-09-06T03:50:53.246Z,20.24
2022-09-06T03:51:53.187Z,20.28
2022-09-06T03:52:53.186Z,20.31
2022-09-06T03:53:53.173Z,20.34
2022-09-06T03:54:53.165Z,20.36
2022-09-06T03:55:53.159Z,20.32
2022-09-06T03:56:53.154Z,20.28
2022-09-06T03:57:53.117Z,20.21
2022-09-06T03:58:53.107Z,20.16
2022-09-06T03:59:53.103Z,20.11
2022-09-06T04:00:53.140Z,20.07
2022-09-06T04:01:53.123Z,20.03
2022-09-06T04:02:53.067Z,19.99
2022-09-06T04:03:53.057Z,19.92
2022-09-06T04:04:53.048Z,19.89
2022-09-06T04:05:53.036Z,19.85
2022-09-06T04:06:53.030Z,19.81
2022-09-06T04:07:53.038Z,19.74
2022-09-06T04:08:53.008Z,19.67
2022-09-06T04:09:52.998Z,19.58
2022-09-06T04:10:52.978Z,19.49
2022-09-06T04:11:52.958Z,19.40
2022-09-06T04:12:52.977Z,19.33
2022-09-06T04:13:52.956Z,19.29
2022-09-06T04:14:52.929Z,19.22
2022-09-06T04:15:52.923Z,19.24
2022-09-06T04:16:52.963Z,19.27
2022-09-06T04:17:52.929Z,19.26
2022-09-06T04:18:52.920Z,19.22
2022-09-06T04:19:52.871Z,19.19
2022-09-06T04:20:52.870Z,19.15
2022-09-06T04:21:52.853Z,19.11
2022-09-06T04:22:52.850Z,19.07
2022-09-06T04:23:52.830Z,19.00
2022-09-06T04:24:52.852Z,18.98
2022-09-06T04:25:52.810Z,18.93
2022-09-06T04:26:52.801Z,18.95
2022-09-06T04:27:52.794Z,18.95
2022-09-06T04:28:52.771Z,18.96
2022-09-06T04:29:52.761Z,18.99
2022-09-06T04:30:52.781Z,19.02
2022-09-06T04:31:52.780Z,19.07
2022-09-06T04:32:52.741Z,19.04
2022-09-06T04:33:52.721Z,19.00
2022-09-06T04:34:52.711Z,18.96
2022-09-06T04:35:52.702Z,18.92
2022-09-06T04:36:52.734Z,18.89
2022-09-06T04:37:52.672Z,18.80
2022-09-06T04:38:52.662Z,18.75
2022-09-06T04:39:52.718Z,18.73
2022-09-06T04:40:52.642Z,18.70
2022-09-06T04:41:52.634Z,18.66
2022-09-06T04:42:52.643Z,18.62
2022-09-06T04:43:52.605Z,18.59
2022-09-06T04:44:52.612Z,18.53
2022-09-06T04:45:52.676Z,18.52
2022-09-06T04:46:52.572Z,18.49
2022-09-06T04:47:52.555Z,18.44
2022-09-06T04:48:52.613Z,18.41
2022-09-06T04:49:52.533Z,18.38
2022-09-06T04:50:52.524Z,18.37
2022-09-06T04:51:52.514Z,18.40
2022-09-06T04:52:52.503Z,18.43
2022-09-06T04:53:52.486Z,18.44
2022-09-06T04:54:52.502Z,18.45
2022-09-06T04:55:52.473Z,18.47
2022-09-06T04:56:52.464Z,18.45
2022-09-06T04:57:52.445Z,18.43
2022-09-06T04:58:52.434Z,18.41
2022-09-06T04:59:52.424Z,18.43
2022-09-06T05:00:52.519Z,18.45
2022-09-06T05:01:52.439Z,18.49
2022-09-06T05:02:52.394Z,18.52
2022-09-06T05:03:56.200Z,18.56
2022-09-06T05:04:52.373Z,18.55
2022-09-06T05:05:52.376Z,18.56
2022-09-06T05:06:52.346Z,18.59
2022-09-06T05:07:52.336Z,18.65
2022-09-06T05:08:52.325Z,18.68
2022-09-06T05:09:52.306Z,18.73
2022-09-06T05:10:52.304Z,18.74
2022-09-06T05:11:52.306Z,18.75
2022-09-06T05:12:52.276Z,18.74
2022-09-06T05:13:52.266Z,18.74
2022-09-06T05:14:52.257Z,18.75
2022-09-06T05:15:52.237Z,18.74
2022-09-06T05:16:52.266Z,18.74
2022-09-06T05:17:52.238Z,18.75
2022-09-06T05:18:52.209Z,18.75
2022-09-06T05:19:52.200Z,18.77
2022-09-06T05:20:52.189Z,18.81
2022-09-06T05:21:52.178Z,18.84
2022-09-06T05:22:52.167Z,18.89
2022-09-06T05:23:55.479Z,18.93
2022-09-06T05:24:53.146Z,18.95
2022-09-06T05:25:52.129Z,18.98
2022-09-06T05:26:52.126Z,18.99
2022-09-06T05:27:52.109Z,19.00
2022-09-06T05:28:52.118Z,19.04
2022-09-06T05:29:52.087Z,19.04
2022-09-06T05:30:52.078Z,19.04
2022-09-06T05:31:52.107Z,19.02
2022-09-06T05:32:52.057Z,19.07
2022-09-06T05:33:52.041Z,19.08
2022-09-06T05:34:52.057Z,19.09
2022-09-06T05:35:52.019Z,19.09
2022-09-06T05:36:52.021Z,19.09
2022-09-06T05:37:52.001Z,19.12
2022-09-06T05:38:51.989Z,19.12
2022-09-06T05:39:59.071Z,19.15
2022-09-06T05:40:51.971Z,19.18
2022-09-06T05:41:51.952Z,19.18
2022-09-06T05:42:51.944Z,19.19
2022-09-06T05:43:51.978Z,19.22
2022-09-06T05:44:51.923Z,19.26
2022-09-06T05:45:52.013Z,19.30
2022-09-06T05:46:51.905Z,19.31
2022-09-06T05:47:51.884Z,19.34
2022-09-06T05:48:51.883Z,19.36
2022-09-06T05:49:51.864Z,19.37
2022-09-06T05:50:51.874Z,19.41
2022-09-06T05:51:51.865Z,19.47
2022-09-06T05:52:51.834Z,19.51
2022-09-06T05:53:51.824Z,19.54
2022-09-06T05:54:51.804Z,19.56
2022-09-06T05:55:51.794Z,19.59
2022-09-06T05:56:51.785Z,19.62
2022-09-06T05:57:51.793Z,19.62
2022-09-06T05:58:51.763Z,19.62
2022-09-06T05:59:51.747Z,19.56
2022-09-06T06:00:51.771Z,19.58
2022-09-06T06:01:51.770Z,19.59
2022-09-06T06:02:51.745Z,19.58
2022-09-06T06:03:51.696Z,19.55
2022-09-06T06:04:51.697Z,19.55
2022-09-06T06:05:51.676Z,19.55
2022-09-06T06:06:51.665Z,19.56
2022-09-06T06:07:51.657Z,19.58
2022-09-06T06:08:51.666Z,19.55
2022-09-06T06:09:51.626Z,19.54
2022-09-06T06:10:51.618Z,19.52
2022-09-06T06:11:51.604Z,19.55
2022-09-06T06:12:51.596Z,19.62
2022-09-06T06:13:51.606Z,19.70
2022-09-06T06:14:51.578Z,19.74
2022-09-06T06:15:51.559Z,19.82
2022-09-06T06:16:51.589Z,19.86
2022-09-06T06:17:51.527Z,19.94
2022-09-06T06:18:52.618Z,20.04
2022-09-06T06:19:51.528Z,20.14
2022-09-06T06:20:51.499Z,20.24
2022-09-06T06:21:51.490Z,20.40
2022-09-06T06:22:51.479Z,20.55
2022-09-06T06:23:51.459Z,20.72
2022-09-06T06:24:51.457Z,20.87
2022-09-06T06:25:51.460Z,21.06
2022-09-06T06:26:51.437Z,21.18
2022-09-06T06:27:51.419Z,21.35
2022-09-06T06:28:51.415Z,21.50
2022-09-06T06:29:51.399Z,21.70
2022-09-06T06:30:51.389Z,22.00
2022-09-06T06:31:51.468Z,22.41
2022-09-06T06:32:51.361Z,23.10
2022-09-06T06:33:51.350Z,23.98
2022-09-06T06:34:51.343Z,24.92
2022-09-06T06:35:51.332Z,25.77
2022-09-06T06:36:51.320Z,26.59
2022-09-06T06:37:51.335Z,27.29
2022-09-06T06:38:51.292Z,27.70
2022-09-06T06:39:51.327Z,27.90
2022-09-06T06:40:54.114Z,28.08
2022-09-06T06:41:52.260Z,28.29
2022-09-06T06:42:51.254Z,28.59
2022-09-06T06:43:51.312Z,28.85
2022-09-06T06:44:51.233Z,29.26
2022-09-06T06:45:51.249Z,29.60
2022-09-06T06:46:51.242Z,29.98
2022-09-06T06:47:51.193Z,30.30
2022-09-06T06:48:54.741Z,30.39
2022-09-06T06:49:51.184Z,30.66
2022-09-06T06:50:51.165Z,30.81
2022-09-06T06:51:51.146Z,31.09
2022-09-06T06:52:51.144Z,31.14
2022-09-06T06:53:51.125Z,30.68
2022-09-06T06:54:51.138Z,30.51
2022-09-06T06:55:51.105Z,30.87
2022-09-06T06:56:51.104Z,31.21
2022-09-06T06:57:51.087Z,31.52
2022-09-06T06:58:51.076Z,31.76
2022-09-06T06:59:51.066Z,31.56
2022-09-06T07:00:51.194Z,31.54
2022-09-06T07:01:51.219Z,31.71
2022-09-06T07:02:51.035Z,31.59
2022-09-06T07:03:51.018Z,31.55
2022-09-06T07:04:51.009Z,31.85
2022-09-06T07:06:13.319Z,32.14
2022-09-06T07:07:51.979Z,32.45
2022-09-06T07:08:50.961Z,32.40
2022-09-06T07:10:51.942Z,32.60
2022-09-06T07:11:50.980Z,32.48
2022-09-06T07:12:50.920Z,31.66
2022-09-06T07:13:50.913Z,31.28
2022-09-06T07:14:50.900Z,30.75
2022-09-06T07:15:50.893Z,30.35
2022-09-06T07:16:50.881Z,30.30
2022-09-06T07:17:50.897Z,30.50
2022-09-06T07:18:50.852Z,30.44
2022-09-06T07:20:14.752Z,30.24
2022-09-06T07:21:51.833Z,31.17
2022-09-06T07:22:50.815Z,31.61
2022-09-06T07:24:06.975Z,32.01
2022-09-06T07:24:51.795Z,32.34
2022-09-06T07:25:50.785Z,32.48
2022-09-06T07:27:51.807Z,31.55
2022-09-06T07:28:50.767Z,30.84
2022-09-06T07:29:50.745Z,30.46
2022-09-06T07:30:50.734Z,30.15
2022-09-06T07:32:11.955Z,30.39
2022-09-06T07:32:51.707Z,30.94
2022-09-06T07:33:55.117Z,31.29
2022-09-06T07:34:51.688Z,31.78
2022-09-06T07:35:50.679Z,32.03
2022-09-06T07:36:50.676Z,32.37
2022-09-06T07:37:50.657Z,32.16
2022-09-06T07:38:50.638Z,32.23
2022-09-06T07:39:50.722Z,31.94
2022-09-06T07:40:50.618Z,32.11
2022-09-06T07:41:50.619Z,32.36
2022-09-06T07:42:50.600Z,32.37
2022-09-06T07:43:50.600Z,32.33
2022-09-06T07:44:50.600Z,32.40
2022-09-06T07:45:50.570Z,32.22
2022-09-06T07:46:50.630Z,32.08
2022-09-06T07:47:57.824Z,31.64
2022-09-06T07:48:51.531Z,31.54
2022-09-06T07:50:53.488Z,31.59
2022-09-06T07:51:50.515Z,31.46
2022-09-06T07:53:57.840Z,31.34
2022-09-06T07:54:51.479Z,31.20
2022-09-06T07:55:50.493Z,31.42
2022-09-06T07:56:50.452Z,31.84
2022-09-06T07:57:50.445Z,32.03
2022-09-06T07:58:50.436Z,32.21
2022-09-06T07:59:50.424Z,32.63
2022-09-06T08:00:50.475Z,32.77
2022-09-06T08:01:50.519Z,32.96
2022-09-06T08:02:50.385Z,33.30
2022-09-06T08:03:50.375Z,33.62
2022-09-06T08:04:51.730Z,33.57
2022-09-06T08:06:10.883Z,33.77
2022-09-06T08:08:59.214Z,33.19
2022-09-06T08:09:51.317Z,32.80
2022-09-06T08:10:50.306Z,32.68
2022-09-06T08:11:50.319Z,32.78
2022-09-06T08:12:50.278Z,32.93
2022-09-06T08:13:50.279Z,33.02
2022-09-06T08:14:50.261Z,32.59
2022-09-06T08:15:50.306Z,31.92
2022-09-06T08:16:50.242Z,31.76
2022-09-06T08:17:50.273Z,32.01
2022-09-06T08:18:50.220Z,32.07
2022-09-06T08:19:50.211Z,31.74
2022-09-06T08:20:50.192Z,31.66
2022-09-06T08:21:50.193Z,31.39
2022-09-06T08:22:50.202Z,30.99
2022-09-06T08:23:50.171Z,31.09
2022-09-06T08:24:50.156Z,31.44
2022-09-06T08:25:50.151Z,32.00
2022-09-06T08:26:50.133Z,32.48
2022-09-06T08:27:50.130Z,32.68
2022-09-06T08:28:50.125Z,32.78
2022-09-06T08:29:50.103Z,33.09
2022-09-06T08:30:50.094Z,33.53
2022-09-06T08:31:50.122Z,33.67
2022-09-06T08:32:50.074Z,33.94
2022-09-06T08:33:50.096Z,33.90
2022-09-06T08:34:50.055Z,33.96
2022-09-06T08:35:50.047Z,34.14
2022-09-06T08:36:50.031Z,34.14
2022-09-06T08:37:50.026Z,34.02
2022-09-06T08:38:50.017Z,33.92
2022-09-06T08:39:50.092Z,33.53
2022-09-06T08:40:50.757Z,33.15
2022-09-06T08:41:49.989Z,32.67
2022-09-06T08:42:49.972Z,32.41
2022-09-06T08:43:50.435Z,32.49
2022-09-06T08:44:57.835Z,32.58
2022-09-06T08:45:53.766Z,32.74
2022-09-06T08:46:49.969Z,32.78
2022-09-06T08:47:49.920Z,33.08
2022-09-06T08:48:49.910Z,32.92
2022-09-06T08:49:49.920Z,32.65
2022-09-06T08:50:49.912Z,32.15
2022-09-06T08:51:49.881Z,32.15
2022-09-06T08:53:13.161Z,32.43
2022-09-06T08:53:50.861Z,32.92
2022-09-06T08:54:49.851Z,33.24
2022-09-06T08:55:49.842Z,33.30
2022-09-06T08:56:49.842Z,33.37
2022-09-06T08:57:49.822Z,33.28
2022-09-06T08:58:49.812Z,33.22
2022-09-06T08:59:49.804Z,33.23
2022-09-06T09:00:49.838Z,32.83
2022-09-06T09:01:49.861Z,32.67
2022-09-06T09:02:49.765Z,32.75
2022-09-06T09:03:49.761Z,33.02
2022-09-06T09:04:49.755Z,33.32
2022-09-06T09:05:49.736Z,33.34
2022-09-06T09:06:49.726Z,33.65
2022-09-06T09:07:49.745Z,33.55
2022-09-06T09:08:49.716Z,33.39
2022-09-06T09:09:49.707Z,33.27
2022-09-06T09:10:49.702Z,33.42
2022-09-06T09:11:49.679Z,33.42
2022-09-06T09:12:49.671Z,33.45
2022-09-06T09:13:49.677Z,33.00
2022-09-06T09:14:49.648Z,32.46
2022-09-06T09:15:49.663Z,32.60
2022-09-06T09:16:49.618Z,32.74
2022-09-06T09:17:49.618Z,32.97
2022-09-06T09:18:49.614Z,32.82
2022-09-06T09:19:49.638Z,32.60
2022-09-06T09:20:49.589Z,32.90
2022-09-06T09:21:49.578Z,33.08
2022-09-06T09:22:49.561Z,33.28
2022-09-06T09:23:49.560Z,33.45
2022-09-06T09:24:49.548Z,33.11
2022-09-06T09:25:49.553Z,32.77
2022-09-06T09:26:49.529Z,32.30
2022-09-06T09:27:49.521Z,32.11
2022-09-06T09:28:49.511Z,31.80
2022-09-06T09:30:50.511Z,32.08
2022-09-06T09:31:53.462Z,31.93
2022-09-06T09:32:49.464Z,32.11
2022-09-06T09:33:49.462Z,32.21
2022-09-06T09:34:49.443Z,32.18
2022-09-06T09:35:49.435Z,31.80
2022-09-06T09:37:54.205Z,31.64
2022-09-06T09:38:50.405Z,31.40
2022-09-06T09:39:49.456Z,31.34
2022-09-06T09:40:49.374Z,30.94
2022-09-06T09:41:49.387Z,30.50
2022-09-06T09:42:49.345Z,30.19
2022-09-06T09:43:49.346Z,29.95
2022-09-06T09:44:49.336Z,29.90
2022-09-06T09:45:49.328Z,29.49
2022-09-06T09:46:49.380Z,29.22
2022-09-06T09:47:49.326Z,28.67
2022-09-06T09:48:49.290Z,28.60
2022-09-06T09:49:49.285Z,28.48
2022-09-06T09:50:49.271Z,28.59
2022-09-06T09:51:49.262Z,28.75
2022-09-06T09:52:49.247Z,28.76
2022-09-06T09:53:49.377Z,28.47
2022-09-06T09:54:49.219Z,28.35
2022-09-06T09:55:49.209Z,28.17
2022-09-06T09:56:49.199Z,28.12
2022-09-06T09:57:49.191Z,28.14
2022-09-06T09:58:49.179Z,28.37
2022-09-06T09:59:49.191Z,28.59
2022-09-06T10:00:49.213Z,28.84
2022-09-06T10:01:49.152Z,28.98
2022-09-06T10:02:49.141Z,29.02
2022-09-06T10:04:50.131Z,29.22
2022-09-06T10:05:49.384Z,29.19
2022-09-06T10:07:10.245Z,29.27
2022-09-06T10:07:50.082Z,29.41
2022-09-06T10:08:49.073Z,29.47
2022-09-06T10:09:49.061Z,29.47
2022-09-06T10:10:49.073Z,29.54
2022-09-06T10:11:49.040Z,29.57
2022-09-06T10:12:49.023Z,29.38
2022-09-06T10:13:49.014Z,29.27
2022-09-06T10:14:49.003Z,29.26
2022-09-06T10:15:49.078Z,29.24
2022-09-06T10:16:49.004Z,29.14
2022-09-06T10:17:48.973Z,29.07
2022-09-06T10:18:49.594Z,29.05
2022-09-06T10:19:49.028Z,28.91
2022-09-06T10:20:48.935Z,28.74
2022-09-06T10:21:48.935Z,28.75
2022-09-06T10:22:48.937Z,28.79
2022-09-06T10:24:49.886Z,28.62
2022-09-06T10:25:49.687Z,28.67
2022-09-06T10:26:48.875Z,28.70
2022-09-06T10:28:01.709Z,28.86
2022-09-06T10:28:49.847Z,28.97
2022-09-06T10:29:48.839Z,29.05
2022-09-06T10:30:48.829Z,29.12
2022-09-06T10:31:48.877Z,29.13
2022-09-06T10:32:48.806Z,29.14
2022-09-06T10:33:48.818Z,29.13
2022-09-06T10:34:48.788Z,29.17
2022-09-06T10:35:48.780Z,29.20
2022-09-06T10:36:48.760Z,29.14
2022-09-06T10:37:48.752Z,28.93
2022-09-06T10:38:48.760Z,28.72
2022-09-06T10:39:48.790Z,28.76
2022-09-06T10:40:48.718Z,28.86
2022-09-06T10:41:48.709Z,28.98
2022-09-06T10:42:48.690Z,29.02
2022-09-06T10:43:48.690Z,29.05
2022-09-06T10:44:48.691Z,29.10
2022-09-06T10:45:48.680Z,29.12
2022-09-06T10:46:48.690Z,29.19
2022-09-06T10:47:48.642Z,29.32
2022-09-06T10:48:48.626Z,29.39
2022-09-06T10:49:48.622Z,29.44
2022-09-06T10:50:48.631Z,29.39
2022-09-06T10:51:48.602Z,29.39
2022-09-06T10:52:48.583Z,29.50
2022-09-06T10:53:48.592Z,29.53
2022-09-06T10:54:48.564Z,29.57
2022-09-06T10:55:48.554Z,29.57
2022-09-06T10:56:48.555Z,29.61
2022-09-06T10:58:16.282Z,29.57
2022-09-06T10:59:51.845Z,29.57
2022-09-06T11:00:48.495Z,29.63
2022-09-06T11:01:48.641Z,29.65
2022-09-06T11:02:48.704Z,29.68
2022-09-06T11:03:58.480Z,29.56
2022-09-06T11:05:49.445Z,29.22
2022-09-06T11:06:48.437Z,29.23
2022-09-06T11:08:51.188Z,29.20
2022-09-06T11:09:48.398Z,29.12
2022-09-06T11:10:48.387Z,28.96
2022-09-06T11:11:48.377Z,28.93
2022-09-06T11:12:48.358Z,29.02
2022-09-06T11:13:48.388Z,29.10
2022-09-06T11:14:48.350Z,28.85
2022-09-06T11:15:48.362Z,28.84
2022-09-06T11:16:48.321Z,28.98
2022-09-06T11:17:48.301Z,29.02
2022-09-06T11:18:48.298Z,29.14
2022-09-06T11:19:48.318Z,29.19
2022-09-06T11:20:48.278Z,29.17
2022-09-06T11:21:48.262Z,29.20
2022-09-06T11:22:48.259Z,29.23
2022-09-06T11:23:48.282Z,29.26
2022-09-06T11:24:48.238Z,29.39
2022-09-06T11:25:48.230Z,29.49
2022-09-06T11:26:48.211Z,29.53
2022-09-06T11:27:48.201Z,29.49
2022-09-06T11:28:48.191Z,29.44
2022-09-06T11:29:48.171Z,29.27
2022-09-06T11:30:48.248Z,29.27
2022-09-06T11:32:16.406Z,29.16
2022-09-06T11:32:49.142Z,29.12
2022-09-06T11:33:48.131Z,29.12
2022-09-06T11:34:48.133Z,29.07
2022-09-06T11:35:48.116Z,29.14
2022-09-06T11:36:48.132Z,29.26
2022-09-06T11:37:48.083Z,29.41
2022-09-06T11:38:48.084Z,29.59
2022-09-06T11:40:49.056Z,29.72
2022-09-06T11:41:48.038Z,29.79
2022-09-06T11:42:48.077Z,29.65
2022-09-06T11:43:48.018Z,29.45
2022-09-06T11:44:48.017Z,29.26
2022-09-06T11:45:48.006Z,29.23
2022-09-06T11:46:48.028Z,29.22
2022-09-06T11:47:47.976Z,29.34
2022-09-06T11:48:47.989Z,29.47
2022-09-06T11:49:47.949Z,29.57
2022-09-06T11:50:47.947Z,29.66
2022-09-06T11:51:47.930Z,29.69
2022-09-06T11:52:47.920Z,29.66
2022-09-06T11:53:47.910Z,29.60
2022-09-06T11:54:47.919Z,29.45
2022-09-06T11:55:47.888Z,29.35
2022-09-06T11:56:47.882Z,29.39
2022-09-06T11:57:47.861Z,29.53
2022-09-06T11:58:47.861Z,29.63
2022-09-06T11:59:47.870Z,29.63
2022-09-06T12:00:47.841Z,29.63
2022-09-06T12:01:47.823Z,29.66
2022-09-06T12:02:47.898Z,29.63
2022-09-06T12:04:48.811Z,29.84
2022-09-06T12:05:47.774Z,29.91
2022-09-06T12:06:47.771Z,29.90
2022-09-06T12:07:47.754Z,29.72
2022-09-06T12:08:47.752Z,29.65
2022-09-06T12:09:47.732Z,29.57
2022-09-06T12:10:47.816Z,29.53
2022-09-06T12:11:47.735Z,29.44
2022-09-06T12:12:47.704Z,29.47
2022-09-06T12:13:47.689Z,29.61
2022-09-06T12:14:47.676Z,29.72
2022-09-06T12:15:47.697Z,29.68
2022-09-06T12:16:47.683Z,29.78
2022-09-06T12:17:47.637Z,29.72
2022-09-06T12:18:47.635Z,29.56
2022-09-06T12:19:47.624Z,29.59
2022-09-06T12:20:47.615Z,29.71
2022-09-06T12:21:47.640Z,29.78
2022-09-06T12:22:47.607Z,29.88
2022-09-06T12:23:47.577Z,29.93
2022-09-06T12:24:47.570Z,29.91
2022-09-06T12:25:47.574Z,29.79
2022-09-06T12:26:49.793Z,29.75
2022-09-06T12:27:48.569Z,29.78
2022-09-06T12:28:47.547Z,29.84
2022-09-06T12:29:47.519Z,29.81
2022-09-06T12:30:47.547Z,29.82
2022-09-06T12:31:47.523Z,29.90
2022-09-06T12:32:47.480Z,29.98
2022-09-06T12:33:47.488Z,30.05
2022-09-06T12:34:47.554Z,29.95
2022-09-06T12:35:58.876Z,29.90
2022-09-06T12:36:48.431Z,29.88
2022-09-06T12:37:47.429Z,29.94
2022-09-06T12:38:47.415Z,30.08
2022-09-06T12:39:47.510Z,30.10
2022-09-06T12:40:47.391Z,30.05
2022-09-06T12:41:47.382Z,30.05
2022-09-06T12:42:47.372Z,30.09
2022-09-06T12:43:47.355Z,30.09
2022-09-06T12:44:47.345Z,30.06
2022-09-06T12:45:47.365Z,30.00
2022-09-06T12:46:47.389Z,29.94
2022-09-06T12:47:47.313Z,30.00
2022-09-06T12:48:47.304Z,30.10
2022-09-06T12:49:47.284Z,30.23
2022-09-06T12:50:47.305Z,30.31
2022-09-06T12:51:47.264Z,30.48
2022-09-06T12:52:47.255Z,30.55
2022-09-06T12:53:47.255Z,30.62
2022-09-06T12:54:47.237Z,30.70
2022-09-06T12:55:47.225Z,30.72
2022-09-06T12:56:47.237Z,30.78
2022-09-06T12:57:47.196Z,30.68
2022-09-06T12:58:47.197Z,30.68
2022-09-06T12:59:47.177Z,30.70
2022-09-06T13:00:47.168Z,30.69
2022-09-06T13:01:47.325Z,30.73
2022-09-06T13:02:47.216Z,30.68
2022-09-06T13:03:47.129Z,30.62
2022-09-06T13:04:47.129Z,30.66
2022-09-06T13:05:47.108Z,30.70
2022-09-06T13:06:47.109Z,30.70
2022-09-06T13:07:47.089Z,30.54
2022-09-06T13:08:47.098Z,30.50
2022-09-06T13:09:47.073Z,30.55